createdAt,value
2022-09-18T00:02:06.858Z,16.29
2022-09-18T00:04:37.440Z,16.32
2022-09-18T00:07:09.570Z,16.38
2022-09-18T00:09:40.260Z,16.33
2022-09-18T00:12:10.330Z,16.26
2022-09-18T00:14:40.811Z,16.09
2022-09-18T00:17:14.069Z,16.26
2022-09-18T00:19:44.898Z,16.33
2022-09-18T00:22:15.315Z,16.15
2022-09-18T00:24:46.336Z,16.24
2022-09-18T00:27:16.888Z,16.25
2022-09-18T00:29:47.628Z,16.25
2022-09-18T00:32:17.690Z,16.19
2022-09-18T00:34:48.789Z,16.19
2022-09-18T00:37:19.548Z,16.08
2022-09-18T00:39:49.865Z,16.09
2022-09-18T00:42:21.811Z,16.11
2022-09-18T00:44:52.113Z,16.02
2022-09-18T00:47:46.369Z,16.05
2022-09-18T00:50:26.827Z,15.88
2022-09-18T00:53:03.462Z,15.83
2022-09-18T00:55:43.885Z,15.71
2022-09-18T00:58:14.958Z,15.70
2022-09-18T01:00:45.619Z,15.90
2022-09-18T01:03:15.970Z,15.84
2022-09-18T01:06:17.056Z,16.00
2022-09-18T01:08:58.709Z,16.02
2022-09-18T01:12:09.368Z,16.39
2022-09-18T01:15:10.770Z,16.39
2022-09-18T01:17:58.181Z,16.32
2022-09-18T01:20:49.029Z,16.38
2022-09-18T01:23:34.615Z,16.18
2022-09-18T01:26:29.928Z,16.25
2022-09-18T01:29:13.073Z,16.42
2022-09-18T01:32:13.081Z,16.11
2022-09-18T01:34:53.153Z,16.06
2022-09-18T01:37:45.748Z,15.95
2022-09-18T01:40:23.137Z,16.04
2022-09-18T01:42:57.432Z,16.05
2022-09-18T01:45:47.521Z,16.00
2022-09-18T01:48:34.448Z,16.08
2022-09-18T01:51:14.319Z,15.88
2022-09-18T01:53:51.506Z,15.77
2022-09-18T01:56:40.657Z,15.85
2022-09-18T01:59:16.005Z,15.78
2022-09-18T02:02:08.491Z,15.58
2022-09-18T02:04:42.433Z,15.50
2022-09-18T02:07:23.551Z,15.37
2022-09-18T02:09:54.839Z,15.29
2022-09-18T02:12:28.558Z,15.08
2022-09-18T02:15:10.801Z,14.93
2022-09-18T02:18:02.257Z,14.85
2022-09-18T02:20:45.582Z,15.30
2022-09-18T02:23:16.319Z,15.39
2022-09-18T02:25:57.177Z,15.39
2022-09-18T02:28:29.196Z,15.18
2022-09-18T02:31:00.752Z,15.33
2022-09-18T02:33:39.119Z,15.39
2022-09-18T02:36:37.428Z,15.25
2022-09-18T02:39:40.728Z,15.00
2022-09-18T02:42:40.343Z,14.81
2022-09-18T02:45:24.378Z,14.91
2022-09-18T02:47:54.981Z,15.02
2022-09-18T02:50:52.997Z,15.20
2022-09-18T02:53:34.596Z,14.91
2022-09-18T02:56:18.838Z,14.79
2022-09-18T02:59:04.418Z,14.99
2022-09-18T03:01:36.526Z,14.79
2022-09-18T03:04:11.494Z,14.78
2022-09-18T03:07:07.839Z,15.20
2022-09-18T03:09:45.162Z,15.00
2022-09-18T03:12:18.231Z,15.08
2022-09-18T03:14:51.182Z,14.95
2022-09-18T03:17:21.500Z,14.91
2022-09-18T03:19:51.589Z,15.02
2022-09-18T03:22:21.893Z,14.87
2022-09-18T03:24:51.926Z,14.69
2022-09-18T03:27:22.064Z,15.00
2022-09-18T03:29:52.878Z,15.00
2022-09-18T03:32:26.479Z,15.23
2022-09-18T03:34:58.439Z,15.44
2022-09-18T03:37:30.505Z,15.51
2022-09-18T03:40:02.225Z,15.39
2022-09-18T03:42:33.046Z,15.57
2022-09-18T03:45:04.069Z,15.43
2022-09-18T03:47:36.653Z,15.39
2022-09-18T03:50:08.392Z,15.20
2022-09-18T03:52:40.445Z,15.15
2022-09-18T03:55:26.074Z,15.15
2022-09-18T03:58:08.818Z,15.26
2022-09-18T04:00:58.201Z,15.18
2022-09-18T04:03:37.348Z,15.10
2022-09-18T04:06:42.892Z,14.82
2022-09-18T04:09:36.437Z,14.54
2022-09-18T04:12:06.936Z,14.41
2022-09-18T04:14:37.907Z,14.45
2022-09-18T04:17:08.146Z,14.31
2022-09-18T04:19:38.222Z,14.29
2022-09-18T04:22:10.844Z,14.16
2022-09-18T04:24:42.180Z,14.02
2022-09-18T04:27:12.647Z,13.83
2022-09-18T04:29:42.756Z,13.68
2022-09-18T04:32:15.546Z,13.42
2022-09-18T04:34:46.078Z,13.20
2022-09-18T04:37:16.931Z,12.97
2022-09-18T04:39:48.903Z,12.79
2022-09-18T04:42:19.205Z,12.64
2022-09-18T04:44:49.642Z,12.52
2022-09-18T04:47:19.748Z,12.41
2022-09-18T04:49:49.906Z,12.32
2022-09-18T04:52:22.217Z,12.25
2022-09-18T04:54:52.354Z,12.18
2022-09-18T04:57:22.072Z,12.04
2022-09-18T04:59:52.696Z,11.93
2022-09-18T05:02:22.400Z,11.91
2022-09-18T05:04:55.216Z,11.90
2022-09-18T05:07:33.102Z,11.88
2022-09-18T05:10:03.434Z,11.85
2022-09-18T05:12:33.982Z,11.77
2022-09-18T05:15:04.277Z,11.73
2022-09-18T05:17:34.157Z,11.67
2022-09-18T05:20:07.242Z,11.69
2022-09-18T05:22:46.134Z,11.64
2022-09-18T05:25:18.692Z,11.59
2022-09-18T05:28:16.749Z,11.56
2022-09-18T05:30:48.182Z,11.56
2022-09-18T05:33:18.535Z,11.49
2022-09-18T05:35:48.270Z,11.43
2022-09-18T05:38:17.969Z,11.40
2022-09-18T05:40:50.014Z,11.36
2022-09-18T05:43:20.232Z,11.29
2022-09-18T05:45:53.243Z,11.22
2022-09-18T05:48:30.097Z,11.18
2022-09-18T05:51:00.873Z,11.09
2022-09-18T05:53:31.484Z,11.04
2022-09-18T05:56:18.896Z,10.98
2022-09-18T05:58:49.214Z,10.96
2022-09-18T06:01:19.678Z,11.02
2022-09-18T06:04:11.520Z,11.04
2022-09-18T06:06:53.984Z,10.96
2022-09-18T06:09:24.112Z,10.94
2022-09-18T06:11:53.318Z,10.89
2022-09-18T06:14:25.625Z,10.95
2022-09-18T06:16:56.971Z,10.99
2022-09-18T06:19:27.334Z,10.95
2022-09-18T06:22:00.177Z,10.96
2022-09-18T06:24:30.343Z,10.88
2022-09-18T06:27:07.976Z,10.87
2022-09-18T06:29:38.132Z,10.88
2022-09-18T06:32:17.495Z,10.79
2022-09-18T06:34:48.433Z,10.79
2022-09-18T06:37:18.205Z,10.78
2022-09-18T06:40:13.402Z,10.74
2022-09-18T06:43:05.662Z,10.69
2022-09-18T06:46:00.331Z,10.68
2022-09-18T06:48:39.103Z,10.67
2022-09-18T06:51:10.928Z,10.67
2022-09-18T06:54:00.642Z,10.69
2022-09-18T06:56:30.843Z,10.67
2022-09-18T06:59:00.504Z,10.67
2022-09-18T07:01:30.331Z,10.64
2022-09-18T07:04:10.761Z,10.57
2022-09-18T07:06:48.522Z,10.54
2022-09-18T07:09:20.021Z,10.56
2022-09-18T07:11:52.743Z,10.57
2022-09-18T07:14:29.451Z,10.54
2022-09-18T07:17:10.516Z,10.54
2022-09-18T07:19:43.098Z,10.53
2022-09-18T07:22:13.353Z,10.41
2022-09-18T07:24:46.465Z,10.32
2022-09-18T07:27:16.719Z,10.32
2022-09-18T07:29:46.637Z,10.30
2022-09-18T07:32:17.863Z,10.24
2022-09-18T07:34:48.132Z,10.23
2022-09-18T07:37:23.915Z,10.19
2022-09-18T07:40:20.259Z,10.20
2022-09-18T07:43:10.913Z,10.16
2022-09-18T07:45:48.032Z,10.19
2022-09-18T07:48:19.143Z,10.17
2022-09-18T07:50:53.239Z,10.17
2022-09-18T07:53:25.296Z,10.10
2022-09-18T07:55:58.822Z,10.06
2022-09-18T07:58:28.763Z,10.02
2022-09-18T08:01:08.654Z,10.05
2022-09-18T08:03:47.345Z,10.10
2022-09-18T08:06:18.753Z,10.13
2022-09-18T08:09:14.349Z,10.09
2022-09-18T08:12:13.368Z,10.09
2022-09-18T08:15:00.184Z,10.20
2022-09-18T08:17:48.563Z,10.26
2022-09-18T08:20:42.355Z,10.24
2022-09-18T08:23:28.038Z,10.17
2022-09-18T08:26:02.571Z,10.09
2022-09-18T08:28:33.863Z,10.05
2022-09-18T08:31:05.220Z,10.02
2022-09-18T08:33:35.440Z,9.95
2022-09-18T08:36:04.701Z,9.86
2022-09-18T08:38:37.663Z,9.82
2022-09-18T08:41:46.809Z,9.88
2022-09-18T08:44:32.209Z,9.81
2022-09-18T08:47:48.552Z,9.81
2022-09-18T08:50:27.615Z,9.77
2022-09-18T08:53:13.279Z,9.72
2022-09-18T08:56:01.688Z,9.68
2022-09-18T08:59:00.320Z,9.65
2022-09-18T09:01:51.203Z,9.62
2022-09-18T09:04:30.772Z,9.54
2022-09-18T09:07:15.798Z,9.51
2022-09-18T09:10:04.646Z,9.51
2022-09-18T09:12:47.757Z,9.49
2022-09-18T09:15:30.472Z,9.52
2022-09-18T09:18:20.616Z,9.51
2022-09-18T09:21:00.304Z,9.54
2022-09-18T09:23:35.617Z,9.51
2022-09-18T09:26:24.057Z,9.45
2022-09-18T09:29:34.984Z,9.48
2022-09-18T09:32:33.312Z,9.57
2022-09-18T09:35:16.097Z,9.65
2022-09-18T09:38:25.024Z,9.77
2022-09-18T09:40:57.574Z,9.85
2022-09-18T09:43:34.440Z,9.90
2022-09-18T09:46:37.944Z,10.00
2022-09-18T09:49:27.988Z,10.13
2022-09-18T09:52:09.434Z,10.29
2022-09-18T09:54:40.850Z,10.40
2022-09-18T09:57:27.440Z,10.51
2022-09-18T10:00:00.192Z,10.61
2022-09-18T10:03:21.562Z,10.77
2022-09-18T10:06:19.863Z,10.78
2022-09-18T10:09:04.698Z,10.92
2022-09-18T10:11:39.513Z,11.04
2022-09-18T10:14:18.728Z,11.15
2022-09-18T10:16:53.066Z,11.22
2022-09-18T10:19:26.712Z,11.39
2022-09-18T10:21:58.277Z,11.42
2022-09-18T10:24:42.770Z,11.53
2022-09-18T10:27:15.281Z,11.63
2022-09-18T10:29:45.989Z,11.84
2022-09-18T10:32:39.779Z,12.15
2022-09-18T10:35:33.010Z,12.36
2022-09-18T10:38:04.310Z,12.64
2022-09-18T10:40:41.450Z,13.01
2022-09-18T10:43:20.978Z,13.32
2022-09-18T10:45:58.210Z,13.44
2022-09-18T10:48:33.452Z,13.72
2022-09-18T10:51:06.227Z,14.19
2022-09-18T10:53:43.701Z,14.68
2022-09-18T10:56:33.350Z,15.27
2022-09-18T10:59:37.559Z,15.83
2022-09-18T11:02:15.209Z,16.06
2022-09-18T11:04:49.278Z,16.28
2022-09-18T11:07:25.954Z,17.92
2022-09-18T11:09:56.744Z,21.31
2022-09-18T11:12:31.432Z,22.50
2022-09-18T11:15:12.274Z,23.53
2022-09-18T11:17:50.705Z,24.49
2022-09-18T11:20:35.902Z,24.94
2022-09-18T11:23:31.736Z,24.86
2022-09-18T11:26:28.525Z,25.13
2022-09-18T11:29:35.145Z,23.19
2022-09-18T11:32:23.708Z,24.86
2022-09-18T11:34:58.908Z,24.80
2022-09-18T11:38:12.964Z,25.37
2022-09-18T11:40:49.549Z,25.20
2022-09-18T11:43:30.363Z,24.88
2022-09-18T11:46:14.066Z,24.22
2022-09-18T11:49:20.867Z,24.87
2022-09-18T11:52:08.679Z,25.14
2022-09-18T11:55:01.980Z,25.10
2022-09-18T11:57:40.699Z,24.26
2022-09-18T12:00:23.173Z,24.49
2022-09-18T12:03:15.889Z,23.59
2022-09-18T12:06:02.689Z,23.68
2022-09-18T12:08:36.918Z,22.85
2022-09-18T12:11:37.185Z,22.91
2022-09-18T12:14:25.889Z,24.32
2022-09-18T12:17:38.206Z,24.55
2022-09-18T12:20:33.756Z,24.60
2022-09-18T12:23:06.024Z,25.37
2022-09-18T12:25:59.110Z,25.21
2022-09-18T12:29:49.829Z,24.91
2022-09-18T12:32:43.044Z,25.24
2022-09-18T12:35:28.980Z,25.38
2022-09-18T12:38:10.484Z,24.43
2022-09-18T12:41:23.277Z,25.07
2022-09-18T12:44:01.962Z,25.59
2022-09-18T12:46:47.479Z,25.04
2022-09-18T12:49:35.813Z,25.65
2022-09-18T12:52:09.771Z,25.38
2022-09-18T12:54:45.337Z,24.76
2022-09-18T12:57:18.241Z,24.32
2022-09-18T12:59:55.517Z,24.86
2022-09-18T13:02:40.983Z,24.97
2022-09-18T13:05:20.552Z,24.69
2022-09-18T13:08:11.936Z,24.09
2022-09-18T13:10:44.472Z,24.07
2022-09-18T13:13:32.768Z,23.70
2022-09-18T13:16:22.750Z,24.05
2022-09-18T13:19:09.045Z,23.54
2022-09-18T13:21:43.126Z,24.75
2022-09-18T13:24:20.035Z,25.83
2022-09-18T13:26:52.588Z,25.51
2022-09-18T13:29:53.396Z,24.94
2022-09-18T13:32:37.422Z,24.93
2022-09-18T13:35:34.971Z,25.48
2022-09-18T13:38:28.991Z,25.88
2022-09-18T13:41:05.618Z,25.68
2022-09-18T13:43:42.647Z,24.91
2022-09-18T13:46:40.667Z,25.39
2022-09-18T13:49:56.760Z,25.54
2022-09-18T13:52:36.037Z,25.33
2022-09-18T13:55:14.914Z,25.08
2022-09-18T13:57:46.432Z,25.54
2022-09-18T14:00:22.896Z,26.17
2022-09-18T14:03:13.313Z,25.78
2022-09-18T14:05:44.903Z,26.17
2022-09-18T14:08:20.874Z,26.67
2022-09-18T14:11:13.684Z,26.10
2022-09-18T14:13:45.088Z,25.46
2022-09-18T14:16:24.838Z,25.69
2022-09-18T14:19:31.962Z,26.13
2022-09-18T14:22:03.109Z,26.47
2022-09-18T14:24:42.556Z,26.85
2022-09-18T14:27:33.113Z,26.68
2022-09-18T14:30:27.840Z,27.06
2022-09-18T14:33:06.420Z,26.19
2022-09-18T14:35:57.233Z,27.22
2022-09-18T14:38:38.970Z,26.84
2022-09-18T14:41:23.100Z,27.23
2022-09-18T14:44:08.049Z,27.45
2022-09-18T14:46:57.276Z,27.38
2022-09-18T14:49:33.993Z,27.19
2022-09-18T14:52:05.326Z,27.46
2022-09-18T14:54:40.883Z,27.05
2022-09-18T14:57:14.914Z,26.70
2022-09-18T14:59:45.545Z,26.67
2022-09-18T15:02:38.925Z,26.58
2022-09-18T15:05:13.605Z,26.87
2022-09-18T15:07:55.628Z,26.96
2022-09-18T15:10:26.990Z,26.94
2022-09-18T15:12:59.753Z,27.43
2022-09-18T15:15:35.250Z,27.56
2022-09-18T15:18:06.624Z,27.56
2022-09-18T15:20:36.505Z,27.35
2022-09-18T15:23:27.315Z,27.98
2022-09-18T15:26:00.899Z,27.45
2022-09-18T15:28:34.625Z,28.25
2022-09-18T15:31:08.487Z,27.80
2022-09-18T15:33:41.612Z,27.86
2022-09-18T15:36:27.706Z,27.96
2022-09-18T15:39:01.298Z,27.98
2022-09-18T15:41:44.680Z,28.48
2022-09-18T15:44:35.362Z,28.46
2022-09-18T15:47:29.748Z,27.74
2022-09-18T15:50:01.679Z,27.97
2022-09-18T15:52:38.841Z,28.28
2022-09-18T15:55:12.251Z,27.80
2022-09-18T15:57:49.688Z,28.36
2022-09-18T16:00:31.810Z,28.83
2022-09-18T16:03:10.371Z,28.01
2022-09-18T16:05:41.737Z,28.48
2022-09-18T16:08:24.210Z,28.53
2022-09-18T16:10:56.310Z,27.91
2022-09-18T16:13:27.500Z,28.00
2022-09-18T16:16:12.980Z,28.48
2022-09-18T16:19:04.855Z,29.24
2022-09-18T16:21:44.893Z,28.44
2022-09-18T16:24:32.498Z,28.53
2022-09-18T16:27:07.540Z,28.14
2022-09-18T16:29:38.364Z,29.14
2022-09-18T16:32:13.212Z,29.14
2022-09-18T16:34:46.620Z,29.31
2022-09-18T16:37:18.519Z,29.38
2022-09-18T16:39:48.490Z,29.99
2022-09-18T16:42:20.176Z,29.85
2022-09-18T16:44:50.058Z,29.96
2022-09-18T16:47:20.594Z,29.64
2022-09-18T16:49:51.281Z,30.14
2022-09-18T16:52:21.330Z,30.20
2022-09-18T16:54:51.803Z,30.05
2022-09-18T16:57:24.762Z,29.45
2022-09-18T16:59:55.851Z,29.47
2022-09-18T17:02:26.201Z,29.43
2022-09-18T17:04:56.919Z,29.15
2022-09-18T17:07:26.809Z,29.57
2022-09-18T17:09:57.159Z,29.69
2022-09-18T17:12:27.041Z,29.93
2022-09-18T17:14:56.783Z,30.03
2022-09-18T17:17:26.637Z,29.90
2022-09-18T17:19:56.942Z,29.64
2022-09-18T17:22:26.883Z,29.54
2022-09-18T17:24:59.631Z,29.54
2022-09-18T17:27:29.828Z,28.93
2022-09-18T17:30:00.117Z,29.02
2022-09-18T17:32:29.893Z,29.24
2022-09-18T17:34:59.720Z,29.17
2022-09-18T17:37:30.901Z,28.41
2022-09-18T17:40:02.003Z,28.49
2022-09-18T17:42:32.355Z,28.53
2022-09-18T17:45:02.034Z,28.28
2022-09-18T17:47:31.949Z,27.80
2022-09-18T17:50:02.907Z,28.05
2022-09-18T17:52:36.327Z,28.11
2022-09-18T17:55:06.877Z,28.12
2022-09-18T17:57:38.043Z,28.07
2022-09-18T18:00:10.218Z,27.63
2022-09-18T18:02:42.564Z,27.33
2022-09-18T18:05:12.846Z,28.22
2022-09-18T18:07:42.521Z,28.17
2022-09-18T18:10:13.400Z,28.05
2022-09-18T18:12:43.660Z,27.77
2022-09-18T18:15:13.385Z,28.51
2022-09-18T18:17:44.130Z,28.18
2022-09-18T18:20:14.598Z,28.83
2022-09-18T18:22:44.990Z,28.22
2022-09-18T18:25:15.414Z,27.73
2022-09-18T18:27:45.110Z,27.45
2022-09-18T18:30:17.171Z,27.26
2022-09-18T18:32:47.271Z,27.38
2022-09-18T18:35:17.026Z,27.77
2022-09-18T18:37:47.161Z,28.46
2022-09-18T18:40:16.958Z,30.05
2022-09-18T18:42:46.646Z,31.01
2022-09-18T18:45:16.597Z,31.49
2022-09-18T18:47:50.201Z,31.65
2022-09-18T18:50:20.775Z,31.59
2022-09-18T18:52:50.688Z,31.73
2022-09-18T18:55:20.670Z,32.11
2022-09-18T18:57:50.340Z,32.25
2022-09-18T19:00:20.159Z,31.67
2022-09-18T19:02:50.065Z,31.77
2022-09-18T19:05:24.172Z,31.78
2022-09-18T19:07:54.864Z,31.80
2022-09-18T19:10:26.301Z,31.18
2022-09-18T19:12:58.428Z,31.57
2022-09-18T19:15:30.997Z,31.94
2022-09-18T19:18:03.333Z,32.24
2022-09-18T19:20:35.935Z,31.76
2022-09-18T19:23:07.963Z,31.35
2022-09-18T19:25:38.141Z,30.40
2022-09-18T19:28:08.323Z,28.27
2022-09-18T19:30:41.154Z,29.15
2022-09-18T19:33:17.507Z,28.90
2022-09-18T19:35:47.426Z,29.35
2022-09-18T19:38:21.433Z,29.58
2022-09-18T19:40:54.198Z,31.02
2022-09-18T19:43:32.775Z,31.21
2022-09-18T19:46:03.584Z,29.48
2022-09-18T19:48:33.451Z,26.27
2022-09-18T19:51:03.461Z,24.84
2022-09-18T19:53:33.770Z,24.25
2022-09-18T19:56:05.285Z,23.80
2022-09-18T19:58:36.400Z,23.73
2022-09-18T20:01:11.636Z,23.64
2022-09-18T20:03:43.374Z,23.23
2022-09-18T20:06:13.707Z,23.10
2022-09-18T20:08:44.014Z,22.82
2022-09-18T20:11:13.809Z,22.51
2022-09-18T20:13:43.621Z,22.33
2022-09-18T20:16:13.856Z,22.21
2022-09-18T20:18:43.933Z,22.16
2022-09-18T20:21:16.830Z,22.06
2022-09-18T20:23:49.851Z,21.94
2022-09-18T20:26:25.502Z,21.93
2022-09-18T20:28:59.415Z,21.88
2022-09-18T20:31:37.500Z,21.81
2022-09-18T20:34:14.689Z,21.81
2022-09-18T20:36:48.160Z,21.82
2022-09-18T20:39:18.029Z,21.86
2022-09-18T20:41:48.760Z,21.71
2022-09-18T20:44:18.997Z,21.42
2022-09-18T20:46:51.266Z,21.45
2022-09-18T20:49:21.504Z,21.15
2022-09-18T20:51:51.837Z,21.00
2022-09-18T20:54:24.321Z,20.77
2022-09-18T20:56:56.346Z,20.63
2022-09-18T20:59:26.425Z,20.53
2022-09-18T21:01:56.179Z,20.43
2022-09-18T21:04:26.220Z,20.28
2022-09-18T21:06:57.156Z,20.16
2022-09-18T21:09:31.851Z,19.99
2022-09-18T21:12:01.781Z,19.94
2022-09-18T21:14:32.653Z,19.75
2022-09-18T21:17:09.881Z,19.63
2022-09-18T21:19:40.194Z,19.41
2022-09-18T21:22:09.933Z,19.33
2022-09-18T21:24:39.771Z,19.36
2022-09-18T21:27:11.468Z,19.22
2022-09-18T21:29:41.858Z,19.09
2022-09-18T21:32:13.289Z,19.08
2022-09-18T21:34:46.705Z,18.96
2022-09-18T21:37:16.820Z,18.89
2022-09-18T21:39:46.613Z,18.68
2022-09-18T21:42:17.933Z,18.69
2022-09-18T21:44:48.280Z,18.71
2022-09-18T21:47:18.222Z,18.64
2022-09-18T21:49:47.993Z,18.47
2022-09-18T21:52:18.389Z,18.52
2022-09-18T21:54:50.585Z,18.60
2022-09-18T21:57:20.612Z,18.57
2022-09-18T21:59:50.826Z,18.51
2022-09-18T22:02:23.140Z,18.48
2022-09-18T22:04:56.169Z,18.37
2022-09-18T22:07:26.097Z,18.31
2022-09-18T22:09:55.794Z,18.18
2022-09-18T22:12:25.849Z,18.24
2022-09-18T22:14:55.566Z,18.29
2022-09-18T22:17:26.368Z,18.26
2022-09-18T22:19:57.654Z,18.21
2022-09-18T22:22:28.361Z,18.14
2022-09-18T22:24:58.491Z,18.13
2022-09-18T22:27:28.181Z,18.12
2022-09-18T22:29:58.142Z,18.10
2022-09-18T22:32:28.154Z,17.97
2022-09-18T22:34:58.197Z,17.97
2022-09-18T22:37:28.245Z,18.00
2022-09-18T22:39:58.070Z,17.90
2022-09-18T22:42:27.995Z,17.81
2022-09-18T22:44:58.017Z,18.04
2022-09-18T22:47:27.729Z,18.09
2022-09-18T22:49:57.399Z,18.02
2022-09-18T22:52:27.419Z,18.13
2022-09-18T22:54:57.162Z,18.14
2022-09-18T22:57:26.841Z,18.17
2022-09-18T22:59:56.553Z,18.30
2022-09-18T23:02:26.268Z,18.75
2022-09-18T23:04:56.010Z,18.92
2022-09-18T23:07:26.725Z,19.30
2022-09-18T23:09:56.513Z,19.47
2022-09-18T23:12:26.480Z,19.63
2022-09-18T23:14:56.216Z,19.56
2022-09-18T23:17:25.881Z,19.61
2022-09-18T23:19:55.669Z,19.73
2022-09-18T23:22:25.538Z,19.70
2022-09-18T23:24:55.205Z,19.73
2022-09-18T23:27:24.930Z,19.64
2022-09-18T23:29:54.902Z,19.63
2022-09-18T23:32:24.618Z,19.66
2022-09-18T23:34:56.501Z,19.66
2022-09-18T23:37:26.595Z,19.71
2022-09-18T23:39:56.697Z,19.71
2022-09-18T23:42:27.782Z,19.64
2022-09-18T23:44:57.477Z,19.50
2022-09-18T23:47:27.148Z,19.49
2022-09-18T23:49:56.873Z,19.40
2022-09-18T23:52:26.622Z,19.27
2022-09-18T23:54:56.329Z,19.30
2022-09-18T23:57:28.453Z,19.19
2022-09-18T23:59:59.879Z,19.16
